createdAt,value
2022-11-24T00:00:34.334Z,15.77
2022-11-24T00:03:37.074Z,17.98
2022-11-24T00:06:39.780Z,17.40
2022-11-24T00:09:42.965Z,17.30
2022-11-24T00:12:45.352Z,17.67
2022-11-24T00:15:48.373Z,17.95
2022-11-24T00:18:53.245Z,18.88
2022-11-24T00:21:56.071Z,21.50
2022-11-24T00:24:58.727Z,20.05
2022-11-24T00:28:01.552Z,18.08
2022-11-24T00:31:05.920Z,15.53
2022-11-24T00:34:13.929Z,15.27
2022-11-24T00:37:16.702Z,14.15
2022-11-24T00:40:19.483Z,15.07
2022-11-24T00:43:22.218Z,15.95
2022-11-24T00:46:25.027Z,15.45
2022-11-24T00:49:27.721Z,16.77
2022-11-24T00:52:30.742Z,15.98
2022-11-24T00:55:33.550Z,18.15
2022-11-24T00:58:37.848Z,20.58
2022-11-24T01:01:42.011Z,18.17
2022-11-24T01:04:44.813Z,20.90
2022-11-24T01:07:47.546Z,22.95
2022-11-24T01:10:50.719Z,21.00
2022-11-24T01:13:58.745Z,22.85
2022-11-24T01:17:01.456Z,18.42
2022-11-24T01:20:04.759Z,17.85
2022-11-24T01:23:08.184Z,22.27
2022-11-24T01:26:13.870Z,18.15
2022-11-24T01:29:17.119Z,19.77
2022-11-24T01:32:19.730Z,21.77
2022-11-24T01:35:22.259Z,19.67
2022-11-24T01:38:25.638Z,20.20
2022-11-24T01:41:28.482Z,19.20
2022-11-24T01:44:31.931Z,25.13
2022-11-24T01:47:40.930Z,20.85
2022-11-24T01:50:44.138Z,22.77
2022-11-24T01:53:54.304Z,21.55
2022-11-24T01:57:02.422Z,21.88
2022-11-24T02:00:08.667Z,23.75
2022-11-24T02:03:26.369Z,24.17
2022-11-24T02:06:31.702Z,25.63
2022-11-24T02:09:49.047Z,21.45
2022-11-24T02:12:55.209Z,23.57
2022-11-24T02:15:57.832Z,25.33
2022-11-24T02:19:00.777Z,22.08
2022-11-24T02:22:04.458Z,24.00
2022-11-24T02:25:34.137Z,23.27
2022-11-24T02:28:37.673Z,25.02
2022-11-24T02:31:55.554Z,22.05
2022-11-24T02:35:06.870Z,23.13
2022-11-24T02:38:15.963Z,18.90
2022-11-24T02:41:21.557Z,24.23
2022-11-24T02:44:29.541Z,26.77
2022-11-24T02:47:32.143Z,28.45
2022-11-24T02:50:34.915Z,22.90
2022-11-24T02:53:37.508Z,28.13
2022-11-24T02:56:40.145Z,23.60
2022-11-24T02:59:42.690Z,22.67
2022-11-24T03:02:45.428Z,17.38
2022-11-24T03:05:48.521Z,21.00
2022-11-24T03:08:51.302Z,19.33
2022-11-24T03:11:54.522Z,21.05
2022-11-24T03:14:57.530Z,20.53
2022-11-24T03:17:59.970Z,21.05
2022-11-24T03:21:03.583Z,20.80
2022-11-24T03:24:05.995Z,21.58
2022-11-24T03:27:08.975Z,19.67
2022-11-24T03:30:11.991Z,26.27
2022-11-24T03:33:14.660Z,22.75
2022-11-24T03:36:17.304Z,23.97
2022-11-24T03:39:20.053Z,26.38
2022-11-24T03:42:22.948Z,22.90
2022-11-24T03:48:48.558Z,23.40
2022-11-24T03:51:51.529Z,22.52
2022-11-24T03:54:53.929Z,20.40
2022-11-24T03:57:57.665Z,21.75
2022-11-24T04:01:00.635Z,22.48
2022-11-24T04:04:03.483Z,27.23
2022-11-24T04:07:05.964Z,25.10
2022-11-24T04:10:08.891Z,23.00
2022-11-24T04:13:14.330Z,28.02
2022-11-24T04:16:17.206Z,31.80
2022-11-24T04:19:19.637Z,29.67
2022-11-24T04:22:22.334Z,28.85
2022-11-24T04:25:24.774Z,27.45
2022-11-24T04:28:27.416Z,33.55
2022-11-24T04:31:30.398Z,29.77
2022-11-24T04:34:33.535Z,30.48
2022-11-24T04:37:36.428Z,34.43
2022-11-24T04:40:39.319Z,32.70
2022-11-24T04:43:41.786Z,39.80
2022-11-24T04:46:44.780Z,34.73
2022-11-24T04:49:49.026Z,35.80
2022-11-24T04:52:52.786Z,31.52
2022-11-24T04:55:55.163Z,29.48
2022-11-24T04:58:58.016Z,33.90
2022-11-24T05:02:00.518Z,32.83
2022-11-24T05:05:03.801Z,33.13
2022-11-24T05:08:06.387Z,29.57
2022-11-24T05:11:08.953Z,36.38
2022-11-24T05:14:11.786Z,30.17
2022-11-24T05:17:15.157Z,30.50
2022-11-24T05:20:18.280Z,31.67
2022-11-24T05:23:20.937Z,32.10
2022-11-24T05:26:23.409Z,30.23
2022-11-24T05:29:26.280Z,31.10
2022-11-24T05:32:28.954Z,31.20
2022-11-24T05:35:32.268Z,38.70
2022-11-24T05:38:35.823Z,36.80
2022-11-24T05:41:38.942Z,39.60
2022-11-24T05:44:41.542Z,31.75
2022-11-24T05:47:44.542Z,38.17
2022-11-24T05:50:53.687Z,33.05
2022-11-24T05:53:56.678Z,39.58
2022-11-24T05:56:59.148Z,32.55
2022-11-24T06:00:02.370Z,37.13
2022-11-24T06:03:15.132Z,35.15
2022-11-24T06:06:17.808Z,35.35
2022-11-24T06:09:20.535Z,32.03
2022-11-24T06:12:23.178Z,36.97
2022-11-24T06:15:25.951Z,35.92
2022-11-24T06:18:28.669Z,33.77
2022-11-24T06:21:31.834Z,38.28
2022-11-24T06:24:34.642Z,36.13
2022-11-24T06:27:37.340Z,40.05
2022-11-24T06:30:39.899Z,37.90
2022-11-24T06:33:42.521Z,45.65
2022-11-24T06:36:45.103Z,37.15
2022-11-24T06:39:48.504Z,44.97
2022-11-24T06:42:52.304Z,34.72
2022-11-24T06:45:55.068Z,43.67
2022-11-24T06:48:59.756Z,32.20
2022-11-24T06:52:02.443Z,26.88
2022-11-24T06:55:05.403Z,38.55
2022-11-24T06:58:08.110Z,28.30
2022-11-24T07:01:15.983Z,27.08
2022-11-24T07:04:19.656Z,25.90
2022-11-24T07:07:22.326Z,23.70
2022-11-24T07:10:24.970Z,32.83
2022-11-24T07:13:27.728Z,31.15
2022-11-24T07:16:31.910Z,35.63
2022-11-24T07:19:34.663Z,33.83
2022-11-24T07:22:37.271Z,30.67
2022-11-24T07:25:39.972Z,32.10
2022-11-24T07:28:43.923Z,30.73
2022-11-24T07:31:46.586Z,30.60
2022-11-24T07:34:49.145Z,32.25
2022-11-24T07:37:55.349Z,34.70
2022-11-24T07:41:09.840Z,31.40
2022-11-24T07:44:12.375Z,28.38
2022-11-24T07:47:15.013Z,45.05
2022-11-24T07:50:17.899Z,117.20
2022-11-24T07:53:20.728Z,40.20
2022-11-24T07:56:23.402Z,25.30
2022-11-24T07:59:26.400Z,25.15
2022-11-24T08:02:28.914Z,26.05
2022-11-24T08:05:31.671Z,28.58
2022-11-24T08:08:34.183Z,27.58
2022-11-24T08:11:37.006Z,27.80
2022-11-24T08:14:39.511Z,26.83
2022-11-24T08:17:42.482Z,24.23
2022-11-24T08:20:45.201Z,28.30
2022-11-24T08:23:47.950Z,29.20
2022-11-24T08:26:50.400Z,26.65
2022-11-24T08:29:53.440Z,23.25
2022-11-24T08:32:58.575Z,21.33
2022-11-24T08:36:06.532Z,27.50
2022-11-24T08:39:12.008Z,28.55
2022-11-24T08:42:14.785Z,25.77
2022-11-24T08:45:24.738Z,28.35
2022-11-24T08:48:28.818Z,25.67
2022-11-24T08:51:31.506Z,28.70
2022-11-24T08:54:35.044Z,27.73
2022-11-24T08:57:38.110Z,24.10
2022-11-24T09:00:40.747Z,28.70
2022-11-24T09:03:50.390Z,27.30
2022-11-24T09:06:53.748Z,20.25
2022-11-24T09:09:56.604Z,19.20
2022-11-24T09:12:59.395Z,20.07
2022-11-24T09:16:08.449Z,23.80
2022-11-24T09:19:11.318Z,21.33
2022-11-24T09:22:14.184Z,23.20
2022-11-24T09:25:17.445Z,22.45
2022-11-24T09:28:19.899Z,21.08
2022-11-24T09:31:25.671Z,19.35
2022-11-24T09:34:28.508Z,22.08
2022-11-24T09:37:33.033Z,18.98
2022-11-24T09:40:35.727Z,20.58
2022-11-24T09:43:46.064Z,21.40
2022-11-24T09:47:01.518Z,25.38
2022-11-24T09:50:18.922Z,21.10
2022-11-24T09:53:21.322Z,26.87
2022-11-24T09:56:27.923Z,22.13
2022-11-24T09:59:31.084Z,23.20
2022-11-24T10:02:35.039Z,25.15
2022-11-24T10:05:42.655Z,25.27
2022-11-24T10:09:17.374Z,25.17
2022-11-24T10:12:37.596Z,28.45
2022-11-24T10:16:00.354Z,27.10
2022-11-24T10:19:22.840Z,24.77
2022-11-24T10:22:48.302Z,25.73
2022-11-24T10:25:57.904Z,23.73
2022-11-24T10:29:09.694Z,26.25
2022-11-24T10:32:30.719Z,27.88
2022-11-24T10:35:46.457Z,29.13
2022-11-24T10:39:32.146Z,26.00
2022-11-24T10:42:37.618Z,17.27
2022-11-24T10:45:41.763Z,21.42
2022-11-24T10:48:57.005Z,21.23
2022-11-24T10:52:15.701Z,21.27
2022-11-24T10:55:21.591Z,22.83
2022-11-24T10:58:37.733Z,25.03
2022-11-24T11:01:42.111Z,28.00
2022-11-24T11:04:46.514Z,23.63
2022-11-24T11:07:51.083Z,25.88
2022-11-24T11:11:46.035Z,26.15
2022-11-24T11:14:51.646Z,27.25
2022-11-24T11:18:02.691Z,26.20
2022-11-24T11:21:07.277Z,26.50
2022-11-24T11:24:19.202Z,27.58
2022-11-24T11:27:26.044Z,32.15
2022-11-24T11:34:04.693Z,24.75
2022-11-24T11:37:13.539Z,28.92
2022-11-24T11:40:27.203Z,26.40
2022-11-24T11:43:36.016Z,23.23
2022-11-24T11:46:39.053Z,24.95
2022-11-24T11:49:42.488Z,27.55
2022-11-24T11:53:17.384Z,24.97
2022-11-24T11:56:40.537Z,25.20
2022-11-24T12:00:12.658Z,23.98
2022-11-24T12:03:33.641Z,20.60
2022-11-24T12:06:58.100Z,24.67
2022-11-24T12:10:18.203Z,22.98
2022-11-24T12:13:44.124Z,21.98
2022-11-24T12:17:07.975Z,31.48
2022-11-24T12:20:21.639Z,23.63
2022-11-24T12:23:45.640Z,24.23
2022-11-24T12:26:55.127Z,26.13
2022-11-24T12:30:03.825Z,25.25
2022-11-24T12:33:12.306Z,25.92
2022-11-24T12:36:35.004Z,23.47
2022-11-24T12:39:49.514Z,29.65
2022-11-24T12:43:09.749Z,27.52
2022-11-24T12:46:37.598Z,32.10
2022-11-24T12:50:05.081Z,33.38
2022-11-24T12:53:23.293Z,35.03
2022-11-24T12:56:55.964Z,32.63
2022-11-24T13:00:09.433Z,28.83
2022-11-24T13:03:24.307Z,40.05
2022-11-24T13:06:45.865Z,42.28
2022-11-24T13:10:46.904Z,27.80
2022-11-24T13:14:06.843Z,27.77
2022-11-24T13:17:43.233Z,28.17
2022-11-24T13:20:55.011Z,25.17
2022-11-24T13:24:03.046Z,28.83
2022-11-24T13:27:15.519Z,26.17
2022-11-24T13:30:33.416Z,28.70
2022-11-24T13:33:37.022Z,30.57
2022-11-24T13:36:53.081Z,66.00
2022-11-24T13:39:57.092Z,41.97
2022-11-24T13:43:02.140Z,30.23
2022-11-24T13:46:05.082Z,28.35
2022-11-24T13:49:14.285Z,30.75
2022-11-24T13:52:51.441Z,29.50
2022-11-24T13:56:00.221Z,31.20
2022-11-24T13:59:17.313Z,30.65
2022-11-24T14:02:23.554Z,34.28
2022-11-24T14:05:52.859Z,39.23
2022-11-24T14:08:56.114Z,29.00
2022-11-24T14:12:19.239Z,30.98
2022-11-24T14:15:29.489Z,33.50
2022-11-24T14:18:37.439Z,31.73
2022-11-24T14:21:41.638Z,32.00
2022-11-24T14:24:47.285Z,32.03
2022-11-24T14:27:50.777Z,35.30
2022-11-24T14:31:23.276Z,35.60
2022-11-24T14:34:28.828Z,26.65
2022-11-24T14:37:31.639Z,44.77
2022-11-24T14:40:43.329Z,52.55
2022-11-24T14:43:46.125Z,45.47
2022-11-24T14:46:48.858Z,40.93
2022-11-24T14:49:52.878Z,49.20
2022-11-24T14:52:57.935Z,45.35
2022-11-24T14:56:23.740Z,48.83
2022-11-24T14:59:29.346Z,48.35
2022-11-24T15:02:52.113Z,47.80
2022-11-24T15:06:00.525Z,49.30
2022-11-24T15:09:03.396Z,67.60
2022-11-24T15:12:10.093Z,78.18
2022-11-24T15:15:22.734Z,71.88
2022-11-24T15:18:36.595Z,59.03
2022-11-24T15:21:39.775Z,56.20
2022-11-24T15:24:54.234Z,48.78
2022-11-24T15:27:57.185Z,108.32
2022-11-24T15:31:01.720Z,114.90
2022-11-24T15:34:04.761Z,136.13
2022-11-24T15:37:10.251Z,159.50
2022-11-24T15:40:13.757Z,125.10
2022-11-24T15:43:31.535Z,84.82
2022-11-24T15:46:38.305Z,73.65
2022-11-24T15:49:40.875Z,81.73
2022-11-24T15:52:44.534Z,68.82
2022-11-24T15:55:47.848Z,76.38
2022-11-24T15:58:50.655Z,70.03
2022-11-24T16:01:53.218Z,67.47
2022-11-24T16:04:59.428Z,74.40
2022-11-24T16:08:02.054Z,73.95
2022-11-24T16:11:04.799Z,70.00
2022-11-24T16:14:07.281Z,65.22
2022-11-24T16:17:10.122Z,60.60
2022-11-24T16:20:13.012Z,49.27
2022-11-24T16:23:15.744Z,50.80
2022-11-24T16:26:18.442Z,55.03
2022-11-24T16:29:23.743Z,47.58
2022-11-24T16:32:26.515Z,45.03
2022-11-24T16:35:29.415Z,48.83
2022-11-24T16:38:32.260Z,35.28
2022-11-24T16:41:35.030Z,46.97
2022-11-24T16:44:37.588Z,36.70
2022-11-24T16:47:41.935Z,30.83
2022-11-24T16:50:44.694Z,43.73
2022-11-24T16:53:47.921Z,45.08
2022-11-24T16:56:50.434Z,82.75
2022-11-24T16:59:53.727Z,71.25
2022-11-24T17:02:56.553Z,60.42
2022-11-24T17:06:00.832Z,47.22
2022-11-24T17:09:03.778Z,49.10
2022-11-24T17:12:06.615Z,40.47
2022-11-24T17:15:31.706Z,34.80
2022-11-24T17:18:32.621Z,36.95
2022-11-24T17:21:35.334Z,35.37
2022-11-24T17:24:38.427Z,35.00
2022-11-24T17:27:41.715Z,58.55
2022-11-24T17:30:44.551Z,69.03
2022-11-24T17:33:48.138Z,81.38
2022-11-24T17:36:51.339Z,90.28
2022-11-24T17:40:12.945Z,80.80
2022-11-24T17:43:16.935Z,69.90
2022-11-24T17:46:20.128Z,74.93
2022-11-24T17:49:23.638Z,53.75
2022-11-24T17:52:26.432Z,61.50
2022-11-24T17:55:29.220Z,58.17
2022-11-24T17:58:37.184Z,52.97
2022-11-24T18:01:42.586Z,49.15
2022-11-24T18:04:45.751Z,52.33
2022-11-24T18:07:48.607Z,70.50
2022-11-24T18:10:51.596Z,60.17
2022-11-24T18:14:00.171Z,56.53
2022-11-24T18:17:03.450Z,52.03
2022-11-24T18:20:10.834Z,40.03
2022-11-24T18:23:15.131Z,45.47
2022-11-24T18:26:17.990Z,46.08
2022-11-24T18:29:22.831Z,48.47
2022-11-24T18:32:26.110Z,49.80
2022-11-24T18:35:29.317Z,46.63
2022-11-24T18:38:34.944Z,46.30
2022-11-24T18:41:39.660Z,43.25
2022-11-24T18:44:42.889Z,52.93
2022-11-24T18:47:45.578Z,54.92
2022-11-24T18:50:52.992Z,57.78
2022-11-24T18:53:58.238Z,42.87
2022-11-24T18:57:03.576Z,35.55
2022-11-24T19:00:07.648Z,41.38
2022-11-24T19:03:10.589Z,44.22
2022-11-24T19:06:29.045Z,41.50
2022-11-24T19:09:33.024Z,39.30
2022-11-24T19:12:36.044Z,39.92
2022-11-24T19:15:39.170Z,41.67
2022-11-24T19:18:41.967Z,35.47
2022-11-24T19:21:45.345Z,42.05
2022-11-24T19:24:50.077Z,45.97
2022-11-24T19:27:53.123Z,42.53
2022-11-24T19:31:08.366Z,43.72
2022-11-24T19:34:11.322Z,50.08
2022-11-24T19:37:14.846Z,52.20
2022-11-24T19:40:18.787Z,65.05
2022-11-24T19:43:21.560Z,54.33
2022-11-24T19:46:27.578Z,51.23
2022-11-24T19:49:30.588Z,48.20
2022-11-24T19:52:33.615Z,45.47
2022-11-24T19:55:36.400Z,43.13
2022-11-24T19:58:40.456Z,49.83
2022-11-24T20:01:43.783Z,52.40
2022-11-24T20:04:46.899Z,45.10
2022-11-24T20:07:49.866Z,39.50
2022-11-24T20:10:53.043Z,41.20
2022-11-24T20:13:56.697Z,41.78
2022-11-24T20:17:00.378Z,37.57
2022-11-24T20:20:03.286Z,44.90
2022-11-24T20:23:06.454Z,45.33
2022-11-24T20:26:15.551Z,38.10
2022-11-24T20:29:18.712Z,37.78
2022-11-24T20:32:21.790Z,58.30
2022-11-24T20:35:24.627Z,52.05
2022-11-24T20:38:29.306Z,45.97
2022-11-24T20:41:34.431Z,46.35
2022-11-24T20:44:37.749Z,36.92
2022-11-24T20:47:40.864Z,38.20
2022-11-24T20:50:48.307Z,31.75
2022-11-24T20:53:56.853Z,40.45
2022-11-24T20:56:59.720Z,42.43
2022-11-24T21:00:02.645Z,43.97
2022-11-24T21:03:07.145Z,43.92
2022-11-24T21:06:10.266Z,42.13
2022-11-24T21:09:13.122Z,42.00
2022-11-24T21:12:17.950Z,39.97
2022-11-24T21:15:21.283Z,47.33
2022-11-24T21:18:24.254Z,79.83
2022-11-24T21:21:33.958Z,56.22
2022-11-24T21:24:37.138Z,41.13
2022-11-24T21:27:40.167Z,39.73
2022-11-24T21:30:42.955Z,35.42
2022-11-24T21:33:50.503Z,38.25
2022-11-24T21:36:53.329Z,40.40
2022-11-24T21:39:56.026Z,42.17
2022-11-24T21:42:59.804Z,39.45
2022-11-24T21:46:04.695Z,42.67
2022-11-24T21:49:07.524Z,37.17
2022-11-24T21:52:09.932Z,36.53
2022-11-24T21:55:12.743Z,37.25
2022-11-24T21:58:15.546Z,41.07
2022-11-24T22:01:20.748Z,41.97
2022-11-24T22:04:23.558Z,40.10
2022-11-24T22:07:26.132Z,34.95
2022-11-24T22:10:29.822Z,37.50
2022-11-24T22:13:32.895Z,39.90
2022-11-24T22:16:35.452Z,39.55
2022-11-24T22:19:38.414Z,37.80
2022-11-24T22:22:40.891Z,39.85
2022-11-24T22:25:43.808Z,37.75
2022-11-24T22:28:47.340Z,35.07
2022-11-24T22:31:54.445Z,36.63
2022-11-24T22:34:57.307Z,39.42
2022-11-24T22:37:59.794Z,38.65
2022-11-24T22:41:08.226Z,39.10
2022-11-24T22:44:10.879Z,35.72
2022-11-24T22:47:13.412Z,40.92
2022-11-24T22:50:16.030Z,36.47
2022-11-24T22:53:18.531Z,37.67
2022-11-24T22:56:22.011Z,34.78
2022-11-24T22:59:24.751Z,36.20
2022-11-24T23:02:28.575Z,32.67
2022-11-24T23:05:33.205Z,34.65
2022-11-24T23:08:36.388Z,34.05
2022-11-24T23:11:40.507Z,30.08
2022-11-24T23:14:43.291Z,31.70
2022-11-24T23:17:45.722Z,32.42
2022-11-24T23:20:48.696Z,28.50
2022-11-24T23:23:52.168Z,29.85
2022-11-24T23:26:55.312Z,32.38
2022-11-24T23:29:58.178Z,33.63
2022-11-24T23:33:00.851Z,29.08
2022-11-24T23:36:07.062Z,31.25
2022-11-24T23:39:12.652Z,28.92
2022-11-24T23:42:15.486Z,25.35
2022-11-24T23:45:18.420Z,35.28
2022-11-24T23:48:20.877Z,32.08
2022-11-24T23:51:28.555Z,37.20
2022-11-24T23:54:31.072Z,36.60
2022-11-24T23:57:33.821Z,33.97
